createdAt,value
2022-12-15T00:00:24.677Z,97749.02
2022-12-15T00:03:31.967Z,97751.02
2022-12-15T00:06:19.949Z,97748.63
2022-12-15T00:09:11.217Z,97751.65
2022-12-15T00:12:01.160Z,97753.88
2022-12-15T00:14:48.277Z,97754.64
2022-12-15T00:17:35.012Z,97751.04
2022-12-15T00:20:23.003Z,97753.23
2022-12-15T00:23:09.908Z,97763.09
2022-12-15T00:25:56.802Z,97765.93
2022-12-15T00:28:43.539Z,97772.77
2022-12-15T00:31:30.508Z,97783.02
2022-12-15T00:34:17.699Z,97788.55
2022-12-15T00:37:04.454Z,97794.61
2022-12-15T00:39:32.835Z,97800.31
2022-12-15T00:42:01.111Z,97809.80
2022-12-15T00:44:29.456Z,97813.74
2022-12-15T00:46:57.971Z,97822.20
2022-12-15T00:49:47.934Z,97822.71
2022-12-15T00:52:36.779Z,97827.80
2022-12-15T00:55:24.947Z,97833.16
2022-12-15T00:58:12.382Z,97831.36
2022-12-15T01:00:59.214Z,97828.70
2022-12-15T01:03:46.087Z,97827.92
2022-12-15T01:06:35.978Z,97829.00
2022-12-15T01:09:25.979Z,97830.96
2022-12-15T01:12:13.457Z,97833.13
2022-12-15T01:15:01.939Z,97839.42
2022-12-15T01:17:48.974Z,97837.53
2022-12-15T01:20:20.079Z,97836.34
2022-12-15T01:22:54.600Z,97843.54
2022-12-15T01:25:25.266Z,97847.66
2022-12-15T01:27:54.077Z,97846.03
2022-12-15T01:30:25.503Z,97854.75
2022-12-15T01:32:53.713Z,97856.67
2022-12-15T01:35:22.541Z,97860.05
2022-12-15T01:37:50.660Z,97859.45
2022-12-15T01:40:39.329Z,97858.85
2022-12-15T01:43:23.740Z,97865.77
2022-12-15T01:46:07.847Z,97871.01
2022-12-15T01:48:40.109Z,97877.58
2022-12-15T01:51:35.586Z,97876.92
2022-12-15T01:54:42.925Z,97878.71
2022-12-15T01:57:18.643Z,97880.17
2022-12-15T01:59:51.549Z,97881.08
2022-12-15T02:02:25.112Z,97879.66
2022-12-15T02:04:57.316Z,97878.41
2022-12-15T02:07:25.669Z,97879.77
2022-12-15T02:09:58.327Z,97884.45
2022-12-15T02:13:04.410Z,97885.48
2022-12-15T02:15:50.748Z,97886.66
2022-12-15T02:18:50.984Z,97889.17
2022-12-15T02:21:37.248Z,97891.23
2022-12-15T02:24:16.080Z,97900.85
2022-12-15T02:26:47.341Z,97907.27
2022-12-15T02:29:30.850Z,97912.74
2022-12-15T02:32:03.811Z,97912.52
2022-12-15T02:34:58.950Z,97914.50
2022-12-15T02:37:34.537Z,97916.29
2022-12-15T02:40:04.996Z,97916.23
2022-12-15T02:42:35.949Z,97922.02
2022-12-15T02:45:11.793Z,97926.58
2022-12-15T02:48:06.969Z,97932.24
2022-12-15T02:50:44.110Z,97929.36
2022-12-15T02:53:28.957Z,97939.38
2022-12-15T02:56:32.871Z,97941.55
2022-12-15T02:59:11.358Z,97940.33
2022-12-15T03:01:58.170Z,97940.13
2022-12-15T03:04:27.515Z,97938.59
2022-12-15T03:07:01.275Z,97937.85
2022-12-15T03:09:31.888Z,97935.88
2022-12-15T03:12:00.612Z,97937.91
2022-12-15T03:14:29.164Z,97943.28
2022-12-15T03:16:57.293Z,97946.14
2022-12-15T03:19:26.174Z,97946.88
2022-12-15T03:21:54.277Z,97948.18
2022-12-15T03:24:22.280Z,97950.23
2022-12-15T03:26:51.217Z,97953.82
2022-12-15T03:29:19.576Z,97951.67
2022-12-15T03:31:50.091Z,97954.74
2022-12-15T03:34:18.720Z,97958.59
2022-12-15T03:36:47.293Z,97960.14
2022-12-15T03:39:15.452Z,97963.08
2022-12-15T03:41:43.622Z,97967.77
2022-12-15T03:44:11.609Z,97970.38
2022-12-15T03:46:39.677Z,97974.73
2022-12-15T03:49:07.798Z,97978.55
2022-12-15T03:51:35.889Z,97986.16
2022-12-15T03:54:04.122Z,97990.89
2022-12-15T03:56:32.648Z,97994.89
2022-12-15T03:59:00.708Z,98000.50
2022-12-15T04:01:34.402Z,98001.48
2022-12-15T04:04:05.159Z,98005.20
2022-12-15T04:06:33.360Z,98007.48
2022-12-15T04:09:01.499Z,98010.83
2022-12-15T04:11:29.954Z,98009.95
2022-12-15T04:13:58.042Z,98009.02
2022-12-15T04:16:26.173Z,98012.31
2022-12-15T04:19:14.377Z,98018.95
2022-12-15T04:21:42.457Z,98024.87
2022-12-15T04:24:29.135Z,98025.40
2022-12-15T04:27:15.750Z,98022.62
2022-12-15T04:30:02.462Z,98021.06
2022-12-15T04:32:50.064Z,98022.81
2022-12-15T04:35:37.452Z,98027.51
2022-12-15T04:38:24.433Z,98031.14
2022-12-15T04:41:11.406Z,98034.80
2022-12-15T04:43:59.295Z,98040.52
2022-12-15T04:46:46.291Z,98042.60
2022-12-15T04:49:32.921Z,98052.13
2022-12-15T04:52:19.760Z,98053.85
2022-12-15T04:55:06.586Z,98056.95
2022-12-15T04:57:54.489Z,98059.40
2022-12-15T05:00:41.421Z,98062.35
2022-12-15T05:03:28.281Z,98062.88
2022-12-15T05:06:16.433Z,98065.70
2022-12-15T05:09:03.166Z,98070.23
2022-12-15T05:11:49.821Z,98074.19
2022-12-15T05:14:36.827Z,98075.56
2022-12-15T05:17:23.473Z,98078.20
2022-12-15T05:20:10.135Z,98075.77
2022-12-15T05:22:57.031Z,98086.05
2022-12-15T05:25:43.589Z,98093.91
2022-12-15T05:28:30.306Z,98097.23
2022-12-15T05:31:17.211Z,98099.64
2022-12-15T05:33:45.377Z,98101.77
2022-12-15T05:36:13.504Z,98103.42
2022-12-15T05:38:41.617Z,98103.40
2022-12-15T05:41:09.832Z,98110.50
2022-12-15T05:43:38.168Z,98113.08
2022-12-15T05:46:06.383Z,98116.89
2022-12-15T05:48:34.568Z,98123.16
2022-12-15T05:51:08.516Z,98131.52
2022-12-15T05:53:39.065Z,98137.41
2022-12-15T05:56:13.470Z,98148.39
2022-12-15T05:58:45.495Z,98153.30
2022-12-15T06:01:16.943Z,98164.11
2022-12-15T06:03:46.087Z,98169.14
2022-12-15T06:06:14.312Z,98177.68
2022-12-15T06:08:43.276Z,98188.48
2022-12-15T06:11:14.341Z,98188.95
2022-12-15T06:13:42.722Z,98187.53
2022-12-15T06:16:16.857Z,98189.09
2022-12-15T06:18:51.411Z,98189.60
2022-12-15T06:21:24.106Z,98195.70
2022-12-15T06:23:53.128Z,98196.74
2022-12-15T06:26:26.648Z,98199.99
2022-12-15T06:28:57.664Z,98205.67
2022-12-15T06:31:26.966Z,98208.04
2022-12-15T06:34:01.715Z,98213.37
2022-12-15T06:36:31.225Z,98217.63
2022-12-15T06:39:01.869Z,98220.89
2022-12-15T06:41:31.699Z,98222.40
2022-12-15T06:44:01.095Z,98224.81
2022-12-15T06:46:32.034Z,98229.81
2022-12-15T06:49:00.782Z,98239.36
2022-12-15T06:51:29.216Z,98242.46
2022-12-15T06:53:57.411Z,98247.48
2022-12-15T06:56:33.997Z,98254.38
2022-12-15T06:59:05.632Z,98260.25
2022-12-15T07:01:34.795Z,98265.48
2022-12-15T07:04:06.083Z,98271.05
2022-12-15T07:06:37.751Z,98276.26
2022-12-15T07:09:10.620Z,98285.35
2022-12-15T07:11:39.247Z,98285.85
2022-12-15T07:14:07.462Z,98297.02
2022-12-15T07:16:35.795Z,98298.23
2022-12-15T07:19:04.046Z,98308.30
2022-12-15T07:21:32.219Z,98314.24
2022-12-15T07:24:01.515Z,98320.82
2022-12-15T07:26:30.700Z,98318.16
2022-12-15T07:28:58.905Z,98312.70
2022-12-15T07:31:27.324Z,98309.94
2022-12-15T07:33:57.991Z,98309.73
2022-12-15T07:36:27.901Z,98314.85
2022-12-15T07:39:05.105Z,98317.67
2022-12-15T07:41:33.871Z,98324.30
2022-12-15T07:44:02.634Z,98328.80
2022-12-15T07:46:31.005Z,98335.05
2022-12-15T07:48:59.452Z,98339.20
2022-12-15T07:51:27.864Z,98344.73
2022-12-15T07:53:56.112Z,98343.63
2022-12-15T07:56:24.482Z,98347.81
2022-12-15T07:58:53.052Z,98356.18
2022-12-15T08:01:21.627Z,98360.21
2022-12-15T08:03:50.361Z,98359.48
2022-12-15T08:06:18.646Z,98358.19
2022-12-15T08:08:49.920Z,98361.80
2022-12-15T08:11:22.557Z,98377.98
2022-12-15T08:14:10.703Z,98387.77
2022-12-15T08:16:40.040Z,98392.65
2022-12-15T08:19:12.991Z,98391.42
2022-12-15T08:21:42.895Z,98390.17
2022-12-15T08:24:11.879Z,98405.25
2022-12-15T08:26:41.595Z,98414.01
2022-12-15T08:32:03.014Z,98407.75
2022-12-15T08:34:31.411Z,98420.05
2022-12-15T08:36:59.668Z,98423.94
2022-12-15T08:39:28.177Z,98434.17
2022-12-15T08:41:56.345Z,98435.64
2022-12-15T08:44:24.522Z,98442.42
2022-12-15T08:46:52.756Z,98445.80
2022-12-15T08:49:22.356Z,98449.02
2022-12-15T08:51:51.663Z,98454.94
2022-12-15T08:54:21.487Z,98452.06
2022-12-15T08:56:50.133Z,98454.92
2022-12-15T08:59:19.633Z,98460.35
2022-12-15T09:01:48.403Z,98461.42
2022-12-15T09:04:17.345Z,98461.41
2022-12-15T09:06:50.811Z,98465.50
2022-12-15T09:09:19.984Z,98468.30
2022-12-15T09:11:49.335Z,98477.40
2022-12-15T09:14:21.580Z,98472.61
2022-12-15T09:16:54.515Z,98462.16
2022-12-15T09:19:22.773Z,98460.34
2022-12-15T09:21:51.030Z,98464.63
2022-12-15T09:24:28.883Z,98460.66
2022-12-15T09:27:03.442Z,98452.56
2022-12-15T09:29:32.946Z,98457.16
2022-12-15T09:32:01.303Z,98459.68
2022-12-15T09:34:29.678Z,98460.78
2022-12-15T09:36:57.946Z,98467.20
2022-12-15T09:39:26.144Z,98470.42
2022-12-15T09:41:59.726Z,98467.15
2022-12-15T09:44:32.309Z,98467.08
2022-12-15T09:47:28.614Z,98474.77
2022-12-15T09:50:01.234Z,98473.66
2022-12-15T09:52:31.814Z,98467.52
2022-12-15T09:55:02.015Z,98460.95
2022-12-15T09:57:40.592Z,98466.08
2022-12-15T10:00:21.756Z,98467.16
2022-12-15T10:03:13.655Z,98475.98
2022-12-15T10:06:15.370Z,98479.54
2022-12-15T10:08:54.720Z,98482.25
2022-12-15T10:11:22.929Z,98485.83
2022-12-15T10:14:21.583Z,98482.35
2022-12-15T10:17:12.115Z,98483.63
2022-12-15T10:19:50.178Z,98480.37
2022-12-15T10:22:30.135Z,98485.52
2022-12-15T10:25:23.749Z,98484.09
2022-12-15T10:28:45.215Z,98487.45
2022-12-15T10:31:35.129Z,98491.20
2022-12-15T10:34:17.513Z,98493.22
2022-12-15T10:36:51.392Z,98495.70
2022-12-15T10:39:21.327Z,98483.23
2022-12-15T10:42:16.979Z,98487.94
2022-12-15T10:44:50.558Z,98493.83
2022-12-15T10:47:28.042Z,98491.09
2022-12-15T10:50:24.290Z,98494.67
2022-12-15T10:52:53.223Z,98488.81
2022-12-15T10:55:43.942Z,98486.48
2022-12-15T10:58:25.983Z,98495.79
2022-12-15T11:01:16.121Z,98495.09
2022-12-15T11:03:46.123Z,98492.73
2022-12-15T11:06:20.176Z,98496.45
2022-12-15T11:08:53.146Z,98500.55
2022-12-15T11:11:47.396Z,98507.39
2022-12-15T11:14:20.528Z,98519.30
2022-12-15T11:16:57.610Z,98529.29
2022-12-15T11:19:39.473Z,98530.56
2022-12-15T11:22:23.956Z,98534.77
2022-12-15T11:25:24.624Z,98537.70
2022-12-15T11:27:57.706Z,98544.73
2022-12-15T11:30:42.612Z,98549.27
2022-12-15T11:33:11.207Z,98544.11
2022-12-15T11:36:01.793Z,98548.77
2022-12-15T11:38:58.527Z,98553.56
2022-12-15T11:41:43.217Z,98554.50
2022-12-15T11:44:23.472Z,98565.98
2022-12-15T11:47:28.372Z,98560.29
2022-12-15T11:50:20.596Z,98549.83
2022-12-15T11:53:20.411Z,98542.82
2022-12-15T11:56:21.910Z,98542.83
2022-12-15T11:58:59.331Z,98539.02
2022-12-15T12:02:05.614Z,98542.33
2022-12-15T12:05:03.227Z,98546.80
2022-12-15T12:07:46.660Z,98553.17
2022-12-15T12:10:55.500Z,98558.90
2022-12-15T12:13:32.963Z,98561.52
2022-12-15T12:16:19.732Z,98563.73
2022-12-15T12:18:57.301Z,98561.91
2022-12-15T12:21:32.614Z,98570.27
2022-12-15T12:24:10.523Z,98574.21
2022-12-15T12:26:59.497Z,98572.42
2022-12-15T12:29:33.175Z,98563.41
2022-12-15T12:32:21.217Z,98567.73
2022-12-15T12:38:04.464Z,98580.69
2022-12-15T12:40:48.473Z,98584.28
2022-12-15T12:43:26.584Z,98588.78
2022-12-15T12:46:00.100Z,98590.17
2022-12-15T12:48:40.864Z,98590.77
2022-12-15T12:51:17.535Z,98587.07
2022-12-15T12:53:45.960Z,98588.08
2022-12-15T12:56:33.876Z,98595.90
2022-12-15T12:59:09.572Z,98589.08
2022-12-15T13:01:38.761Z,98585.60
2022-12-15T13:04:36.089Z,98589.73
2022-12-15T13:07:25.065Z,98583.05
2022-12-15T13:10:21.034Z,98585.88
2022-12-15T13:12:52.892Z,98586.90
2022-12-15T13:15:27.823Z,98593.16
2022-12-15T13:18:22.992Z,98605.10
2022-12-15T13:20:57.431Z,98608.48
2022-12-15T13:23:27.840Z,98606.00
2022-12-15T13:25:59.032Z,98618.77
2022-12-15T13:28:39.324Z,98615.98
2022-12-15T13:31:17.016Z,98616.45
2022-12-15T13:33:52.794Z,98619.45
2022-12-15T13:36:39.462Z,98611.52
2022-12-15T13:39:20.075Z,98606.60
2022-12-15T13:44:52.044Z,98614.39
2022-12-15T13:47:25.388Z,98621.63
2022-12-15T13:50:15.631Z,98623.10
2022-12-15T13:53:17.740Z,98624.03
2022-12-15T13:55:40.325Z,98622.32
2022-12-15T13:58:17.833Z,98606.83
2022-12-15T14:00:57.111Z,98620.20
2022-12-15T14:03:26.241Z,98612.09
2022-12-15T14:05:58.775Z,98607.55
2022-12-15T14:08:30.768Z,98609.61
2022-12-15T14:13:54.127Z,98617.67
2022-12-15T14:16:24.921Z,98616.02
2022-12-15T14:19:08.735Z,98626.94
2022-12-15T14:21:37.468Z,98642.73
2022-12-15T14:24:41.290Z,98646.85
2022-12-15T14:27:10.061Z,98649.24
2022-12-15T14:29:38.393Z,98657.75
2022-12-15T14:32:10.228Z,98659.00
2022-12-15T14:34:42.065Z,98655.36
2022-12-15T14:37:20.204Z,98648.38
2022-12-15T14:39:50.144Z,98640.35
2022-12-15T14:42:24.992Z,98650.65
2022-12-15T14:44:57.739Z,98666.09
2022-12-15T14:47:31.495Z,98675.30
2022-12-15T14:50:02.537Z,98686.68
2022-12-15T14:52:43.300Z,98690.79
2022-12-15T14:55:32.622Z,98693.84
2022-12-15T14:58:01.817Z,98700.91
2022-12-15T15:00:34.199Z,98694.69
2022-12-15T15:03:11.858Z,98569.30
2022-12-15T15:03:34.372Z,98702.71
2022-12-15T15:06:14.740Z,98704.46
2022-12-15T15:08:53.334Z,98703.13
2022-12-15T15:11:34.103Z,98705.42
2022-12-15T15:14:15.409Z,98700.20
2022-12-15T15:16:44.428Z,98700.41
2022-12-15T15:19:22.641Z,98705.70
2022-12-15T15:21:50.973Z,98709.76
2022-12-15T15:24:23.355Z,98717.97
2022-12-15T15:26:52.620Z,98720.27
2022-12-15T15:29:36.773Z,98721.89
2022-12-15T15:32:16.617Z,98719.27
2022-12-15T15:34:46.463Z,98716.69
2022-12-15T15:37:20.203Z,98716.34
2022-12-15T15:39:50.572Z,98713.56
2022-12-15T15:42:19.185Z,98711.16
2022-12-15T15:44:47.259Z,98715.20
2022-12-15T15:47:23.779Z,98717.04
2022-12-15T15:49:58.715Z,98724.31
2022-12-15T15:52:29.604Z,98726.34
2022-12-15T15:54:59.007Z,98730.25
2022-12-15T15:57:27.128Z,98736.77
2022-12-15T15:59:55.378Z,98732.44
2022-12-15T16:02:23.741Z,98738.04
2022-12-15T16:04:52.057Z,98749.04
2022-12-15T16:07:24.920Z,98752.38
2022-12-15T16:09:53.875Z,98750.27
2022-12-15T16:12:31.634Z,98750.27
2022-12-15T16:14:59.830Z,98748.88
2022-12-15T16:17:27.959Z,98749.27
2022-12-15T16:19:56.372Z,98747.58
2022-12-15T16:22:24.659Z,98748.14
2022-12-15T16:24:52.867Z,98749.91
2022-12-15T16:27:20.970Z,98742.27
2022-12-15T16:29:49.138Z,98741.73
2022-12-15T16:32:17.314Z,98736.34
2022-12-15T16:34:46.004Z,98729.55
2022-12-15T16:37:25.875Z,98726.91
2022-12-15T16:39:54.120Z,98728.84
2022-12-15T16:42:22.318Z,98727.80
2022-12-15T16:44:50.545Z,98722.78
2022-12-15T16:47:19.097Z,98723.70
2022-12-15T16:49:47.354Z,98725.65
2022-12-15T16:52:20.205Z,98726.37
2022-12-15T16:54:49.858Z,98727.77
2022-12-15T16:57:18.656Z,98723.07
2022-12-15T16:59:47.429Z,98725.70
2022-12-15T17:02:27.821Z,98736.84
2022-12-15T17:04:56.374Z,98738.79
2022-12-15T17:07:27.080Z,98740.58
2022-12-15T17:09:56.099Z,98740.42
2022-12-15T17:12:24.349Z,98741.27
2022-12-15T17:14:52.506Z,98743.38
2022-12-15T17:17:21.197Z,98739.90
2022-12-15T17:20:27.572Z,98737.65
2022-12-15T17:22:38.670Z,98736.86
2022-12-15T17:25:16.158Z,98734.97
2022-12-15T17:27:45.164Z,98738.63
2022-12-15T17:30:15.609Z,98741.40
2022-12-15T17:32:44.205Z,98745.60
2022-12-15T17:35:12.514Z,98747.86
2022-12-15T17:37:41.024Z,98753.10
2022-12-15T17:40:21.260Z,98749.42
2022-12-15T17:42:51.042Z,98740.40
2022-12-15T17:45:23.359Z,98731.35
2022-12-15T17:47:52.268Z,98727.37
2022-12-15T17:50:20.501Z,98720.41
2022-12-15T17:52:48.672Z,98717.81
2022-12-15T17:55:30.318Z,98716.77
2022-12-15T17:58:03.100Z,98712.25
2022-12-15T18:00:33.187Z,98714.92
2022-12-15T18:03:01.519Z,98718.98
2022-12-15T18:05:31.297Z,98714.81
2022-12-15T18:08:13.385Z,98712.56
2022-12-15T18:10:42.215Z,98708.58
2022-12-15T18:13:20.075Z,98690.52
2022-12-15T18:15:48.611Z,98691.61
2022-12-15T18:18:18.791Z,98698.80
2022-12-15T18:20:47.593Z,98704.94
2022-12-15T18:23:22.824Z,98706.21
2022-12-15T18:25:51.247Z,98709.23
2022-12-15T18:28:21.389Z,98716.79
2022-12-15T18:30:52.286Z,98720.47
2022-12-15T18:33:22.805Z,98725.36
2022-12-15T18:35:51.935Z,98730.59
2022-12-15T18:38:25.885Z,98735.14
2022-12-15T18:41:00.146Z,98738.61
2022-12-15T18:43:34.207Z,98737.40
2022-12-15T18:46:02.602Z,98734.60
2022-12-15T18:48:34.000Z,98742.06
2022-12-15T18:51:12.405Z,98748.97
2022-12-15T18:53:41.276Z,98747.56
2022-12-15T18:56:13.262Z,98744.44
2022-12-15T18:58:42.073Z,98751.27
2022-12-15T19:01:10.926Z,98752.84
2022-12-15T19:03:40.557Z,98760.61
2022-12-15T19:06:26.640Z,98757.09
2022-12-15T19:08:54.857Z,98752.30
2022-12-15T19:11:35.716Z,98753.80
2022-12-15T19:14:27.265Z,98751.46
2022-12-15T19:17:14.438Z,98739.72
2022-12-15T19:20:01.426Z,98737.46
2022-12-15T19:22:31.333Z,98736.61
2022-12-15T19:25:00.564Z,98731.77
2022-12-15T19:27:29.235Z,98728.13
2022-12-15T19:29:57.495Z,98724.34
2022-12-15T19:32:26.811Z,98716.90
2022-12-15T19:34:55.008Z,98716.95
2022-12-15T19:37:27.392Z,98708.48
2022-12-15T19:39:57.897Z,98703.64
2022-12-15T19:42:33.619Z,98705.95
2022-12-15T19:45:13.825Z,98700.10
2022-12-15T19:47:44.879Z,98699.95
2022-12-15T19:50:15.530Z,98696.02
2022-12-15T19:52:47.226Z,98696.41
2022-12-15T19:55:16.932Z,98701.66
2022-12-15T19:57:46.154Z,98708.69
2022-12-15T20:00:22.090Z,98718.63
2022-12-15T20:02:54.686Z,98724.91
2022-12-15T20:05:25.026Z,98714.29
2022-12-15T20:07:55.071Z,98718.82
2022-12-15T20:10:31.690Z,98723.70
2022-12-15T20:13:01.257Z,98713.95
2022-12-15T20:15:29.481Z,98703.73
2022-12-15T20:17:58.039Z,98703.39
2022-12-15T20:20:28.856Z,98700.97
2022-12-15T20:23:01.574Z,98695.77
2022-12-15T20:25:36.369Z,98695.46
2022-12-15T20:28:10.500Z,98689.77
2022-12-15T20:30:38.740Z,98686.67
2022-12-15T20:33:07.061Z,98688.15
2022-12-15T20:35:38.192Z,98690.45
2022-12-15T20:38:33.668Z,98690.16
2022-12-15T20:41:04.806Z,98693.13
2022-12-15T20:43:35.270Z,98686.09
2022-12-15T20:46:11.256Z,98681.58
2022-12-15T20:48:40.534Z,98679.83
2022-12-15T20:51:23.557Z,98672.55
2022-12-15T20:53:54.306Z,98671.33
2022-12-15T20:56:24.618Z,98679.36
2022-12-15T20:58:55.267Z,98693.12
2022-12-15T21:01:27.515Z,98693.13
2022-12-15T21:03:58.216Z,98694.01
2022-12-15T21:06:28.458Z,98698.57
2022-12-15T21:08:57.211Z,98691.11
2022-12-15T21:11:32.624Z,98684.13
2022-12-15T21:14:04.384Z,98683.61
2022-12-15T21:16:32.804Z,98681.18
2022-12-15T21:19:21.999Z,98682.23
2022-12-15T21:21:55.203Z,98673.54
2022-12-15T21:24:27.532Z,98669.92
2022-12-15T21:26:56.336Z,98669.95
2022-12-15T21:29:27.545Z,98667.36
2022-12-15T21:31:55.675Z,98657.98
2022-12-15T21:34:23.773Z,98661.45
2022-12-15T21:36:54.959Z,98659.71
2022-12-15T21:39:29.614Z,98652.91
2022-12-15T21:42:00.963Z,98648.40
2022-12-15T21:44:29.120Z,98647.89
2022-12-15T21:46:57.756Z,98646.33
2022-12-15T21:49:26.505Z,98648.58
2022-12-15T21:51:57.709Z,98652.94
2022-12-15T21:54:31.309Z,98652.41
2022-12-15T21:57:00.249Z,98646.30
2022-12-15T21:59:31.295Z,98640.55
2022-12-15T22:02:00.598Z,98635.85
2022-12-15T22:04:31.807Z,98630.12
2022-12-15T22:07:00.278Z,98625.77
2022-12-15T22:09:28.731Z,98623.15
2022-12-15T22:11:57.141Z,98614.97
2022-12-15T22:14:30.758Z,98613.92
2022-12-15T22:17:00.657Z,98609.58
2022-12-15T22:19:28.941Z,98616.52
2022-12-15T22:21:57.153Z,98609.73
2022-12-15T22:24:25.456Z,98600.84
2022-12-15T22:26:53.648Z,98596.34
2022-12-15T22:29:23.835Z,98600.16
2022-12-15T22:31:52.054Z,98593.92
2022-12-15T22:34:23.079Z,98589.40
2022-12-15T22:36:51.968Z,98583.48
2022-12-15T22:39:20.438Z,98571.30
2022-12-15T22:41:51.026Z,98566.80
2022-12-15T22:44:25.104Z,98577.06
2022-12-15T22:46:59.977Z,98581.94
2022-12-15T22:49:36.024Z,98590.62
2022-12-15T22:52:16.979Z,98587.11
2022-12-15T22:54:46.418Z,98587.98
2022-12-15T22:57:24.000Z,98583.95
2022-12-15T23:00:07.411Z,98575.04
2022-12-15T23:02:40.699Z,98571.87
2022-12-15T23:05:12.096Z,98563.63
2022-12-15T23:07:41.030Z,98560.78
2022-12-15T23:10:29.360Z,98559.69
2022-12-15T23:12:57.460Z,98554.20
2022-12-15T23:15:46.597Z,98546.30
2022-12-15T23:18:14.844Z,98539.11
2022-12-15T23:20:43.367Z,98533.69
2022-12-15T23:23:11.687Z,98524.09
2022-12-15T23:25:40.092Z,98520.21
2022-12-15T23:28:08.441Z,98506.29
2022-12-15T23:30:36.941Z,98503.86
2022-12-15T23:33:05.146Z,98495.23
2022-12-15T23:35:33.269Z,98492.83
2022-12-15T23:38:01.389Z,98496.16
2022-12-15T23:40:29.570Z,98505.73
2022-12-15T23:42:57.698Z,98507.83
2022-12-15T23:45:25.890Z,98503.63
2022-12-15T23:47:54.009Z,98502.59
2022-12-15T23:50:22.372Z,98496.89
2022-12-15T23:52:51.878Z,98494.02
2022-12-15T23:55:20.398Z,98490.23
2022-12-15T23:57:48.550Z,98489.75
